createdAt,value
2022-10-14T00:01:15.122Z,100689.81
2022-10-14T00:03:43.142Z,100693.63
2022-10-14T00:06:18.943Z,100695.31
2022-10-14T00:08:47.657Z,100682.97
2022-10-14T00:11:23.322Z,100692.00
2022-10-14T00:13:54.353Z,100690.13
2022-10-14T00:16:25.164Z,100699.47
2022-10-14T00:18:52.379Z,100698.28
2022-10-14T00:21:20.275Z,100694.94
2022-10-14T00:23:47.449Z,100696.38
2022-10-14T00:26:17.215Z,100686.09
2022-10-14T00:28:44.880Z,100682.25
2022-10-14T00:31:11.973Z,100687.38
2022-10-14T00:33:39.134Z,100685.16
2022-10-14T00:36:07.937Z,100680.34
2022-10-14T00:38:36.253Z,100688.22
2022-10-14T00:41:03.818Z,100686.53
2022-10-14T00:43:53.946Z,100683.50
2022-10-14T00:46:21.401Z,100684.25
2022-10-14T00:48:54.688Z,100686.81
2022-10-14T00:51:22.141Z,100686.06
2022-10-14T00:53:51.168Z,100682.44
2022-10-14T00:56:23.538Z,100661.84
2022-10-14T00:58:51.936Z,100688.19
2022-10-14T01:01:19.081Z,100682.94
2022-10-14T01:03:46.361Z,100690.41
2022-10-14T01:06:36.710Z,100693.28
2022-10-14T01:09:19.363Z,100684.69
2022-10-14T01:12:09.814Z,100699.25
2022-10-14T01:14:59.763Z,100695.06
2022-10-14T01:17:50.133Z,100687.78
2022-10-14T01:20:17.176Z,100697.31
2022-10-14T01:23:27.178Z,100693.75
2022-10-14T01:26:47.848Z,100690.84
2022-10-14T01:29:48.365Z,100687.31
2022-10-14T01:32:27.305Z,100688.72
2022-10-14T01:35:36.139Z,100679.16
2022-10-14T01:38:17.661Z,100685.81
2022-10-14T01:40:55.261Z,100664.72
2022-10-14T01:43:25.714Z,100684.53
2022-10-14T01:45:55.833Z,100685.81
2022-10-14T01:48:28.155Z,100678.88
2022-10-14T01:50:59.967Z,100672.75
2022-10-14T01:53:32.781Z,100667.31
2022-10-14T01:56:01.430Z,100681.78
2022-10-14T01:58:34.376Z,100685.38
2022-10-14T02:01:04.801Z,100672.38
2022-10-14T02:03:42.246Z,100671.63
2022-10-14T02:06:23.021Z,100671.16
2022-10-14T02:09:03.680Z,100683.91
2022-10-14T02:11:51.227Z,100682.19
2022-10-14T02:15:13.799Z,100649.50
2022-10-14T02:18:03.640Z,100672.34
2022-10-14T02:20:47.555Z,100671.66
2022-10-14T02:23:41.695Z,100674.50
2022-10-14T02:26:10.044Z,100671.47
2022-10-14T02:28:38.257Z,100674.75
2022-10-14T02:31:10.786Z,100671.47
2022-10-14T02:33:42.055Z,100682.44
2022-10-14T02:36:12.410Z,100674.59
2022-10-14T02:38:41.371Z,100682.00
2022-10-14T02:41:14.847Z,100685.16
2022-10-14T02:43:42.038Z,100680.84
2022-10-14T02:46:09.176Z,100679.72
2022-10-14T02:48:36.612Z,100689.66
2022-10-14T02:51:03.817Z,100681.78
2022-10-14T02:53:30.951Z,100679.84
2022-10-14T02:55:59.772Z,100674.38
2022-10-14T02:58:26.952Z,100688.50
2022-10-14T03:00:56.726Z,100681.06
2022-10-14T03:03:25.943Z,100677.72
2022-10-14T03:05:53.062Z,100684.88
2022-10-14T03:08:21.159Z,100685.16
2022-10-14T03:10:48.968Z,100682.41
2022-10-14T03:13:16.582Z,100683.69
2022-10-14T03:15:50.587Z,100681.19
2022-10-14T03:18:19.376Z,100662.03
2022-10-14T03:20:49.240Z,100672.00
2022-10-14T03:23:21.724Z,100679.63
2022-10-14T03:25:51.399Z,100675.47
2022-10-14T03:28:26.422Z,100683.69
2022-10-14T03:31:13.843Z,100655.22
2022-10-14T03:34:01.130Z,100656.75
2022-10-14T03:36:29.736Z,100673.22
2022-10-14T03:38:58.121Z,100672.50
2022-10-14T03:41:47.708Z,100675.03
2022-10-14T03:44:18.535Z,100669.66
2022-10-14T03:47:05.659Z,100670.84
2022-10-14T03:49:34.354Z,100670.84
2022-10-14T03:52:09.564Z,100682.28
2022-10-14T03:54:38.844Z,100655.34
2022-10-14T03:57:06.235Z,100669.41
2022-10-14T03:59:40.862Z,100672.63
2022-10-14T04:02:08.253Z,100664.53
2022-10-14T04:04:35.414Z,100668.09
2022-10-14T04:07:03.125Z,100673.69
2022-10-14T04:09:31.034Z,100672.84
2022-10-14T04:11:58.225Z,100661.78
2022-10-14T04:14:48.411Z,100671.09
2022-10-14T04:17:15.671Z,100674.69
2022-10-14T04:19:43.848Z,100664.53
2022-10-14T04:22:13.965Z,100661.78
2022-10-14T04:24:41.039Z,100669.53
2022-10-14T04:27:08.303Z,100665.13
2022-10-14T04:29:44.754Z,100663.69
2022-10-14T04:32:18.104Z,100666.44
2022-10-14T04:34:45.835Z,100670.84
2022-10-14T04:37:16.960Z,100674.69
2022-10-14T04:39:49.969Z,100673.22
2022-10-14T04:42:17.707Z,100673.72
2022-10-14T04:44:48.816Z,100677.28
2022-10-14T04:47:17.733Z,100660.56
2022-10-14T04:49:50.339Z,100670.25
2022-10-14T04:52:20.902Z,100673.47
2022-10-14T04:54:56.665Z,100674.06
2022-10-14T04:57:34.227Z,100672.13
2022-10-14T05:00:02.525Z,100676.22
2022-10-14T05:02:52.665Z,100668.56
2022-10-14T05:05:23.805Z,100674.41
2022-10-14T05:07:56.080Z,100676.31
2022-10-14T05:10:34.445Z,100675.38
2022-10-14T05:13:04.215Z,100669.84
2022-10-14T05:15:37.003Z,100653.31
2022-10-14T05:18:12.679Z,100675.81
2022-10-14T05:20:53.766Z,100667.22
2022-10-14T05:23:23.460Z,100675.91
2022-10-14T05:25:52.070Z,100670.31
2022-10-14T05:28:20.297Z,100659.09
2022-10-14T05:30:49.993Z,100652.91
2022-10-14T05:33:18.681Z,100669.50
2022-10-14T05:35:58.496Z,100676.41
2022-10-14T05:38:26.819Z,100678.09
2022-10-14T05:40:55.740Z,100666.38
2022-10-14T05:43:32.024Z,100679.41
2022-10-14T05:46:01.989Z,100667.72
2022-10-14T05:48:34.639Z,100674.16
2022-10-14T05:51:03.453Z,100672.25
2022-10-14T05:53:33.441Z,100677.72
2022-10-14T05:56:09.554Z,100673.44
2022-10-14T05:58:39.056Z,100664.59
2022-10-14T06:01:10.072Z,100680.63
2022-10-14T06:03:40.225Z,100682.53
2022-10-14T06:06:14.844Z,100680.84
2022-10-14T06:08:43.133Z,100676.00
2022-10-14T06:11:10.234Z,100679.34
2022-10-14T06:13:37.726Z,100673.78
2022-10-14T06:16:10.218Z,100660.44
2022-10-14T06:18:38.008Z,100679.88
2022-10-14T06:21:07.693Z,100651.31
2022-10-14T06:23:44.002Z,100659.88
2022-10-14T06:26:14.894Z,100656.84
2022-10-14T06:29:04.925Z,100654.19
2022-10-14T06:31:35.172Z,100574.25
2022-10-14T06:34:08.028Z,100675.78
2022-10-14T06:36:36.868Z,100680.47
2022-10-14T06:39:05.312Z,100652.63
2022-10-14T06:41:33.034Z,100676.53
2022-10-14T06:44:00.214Z,100674.81
2022-10-14T06:46:27.479Z,100673.13
2022-10-14T06:48:54.682Z,100668.16
2022-10-14T06:51:21.823Z,100674.28
2022-10-14T06:53:48.906Z,100647.50
2022-10-14T06:56:16.039Z,100671.31
2022-10-14T06:58:43.173Z,100664.44
2022-10-14T07:01:10.235Z,100672.34
2022-10-14T07:03:39.182Z,100668.84
2022-10-14T07:06:07.313Z,100672.97
2022-10-14T07:08:35.027Z,100674.28
2022-10-14T07:11:02.160Z,100673.16
2022-10-14T07:13:29.373Z,100672.53
2022-10-14T07:15:56.667Z,100687.22
2022-10-14T07:18:23.863Z,100679.72
2022-10-14T07:20:51.004Z,100681.97
2022-10-14T07:23:18.375Z,100675.59
2022-10-14T07:25:47.771Z,100660.75
2022-10-14T07:28:14.966Z,100675.06
2022-10-14T07:30:42.041Z,100676.50
2022-10-14T07:33:09.141Z,100679.53
2022-10-14T07:35:39.161Z,100648.84
2022-10-14T07:38:06.250Z,100675.78
2022-10-14T07:40:33.408Z,100663.78
2022-10-14T07:43:00.485Z,100661.53
2022-10-14T07:45:27.547Z,100658.63
2022-10-14T07:47:54.672Z,100665.53
2022-10-14T07:50:21.779Z,100662.78
2022-10-14T07:52:49.118Z,100664.06
2022-10-14T07:55:16.365Z,100632.75
2022-10-14T07:57:43.645Z,100665.19
2022-10-14T08:00:11.378Z,100657.97
2022-10-14T08:02:41.303Z,100655.94
2022-10-14T08:05:33.017Z,100651.97
2022-10-14T08:07:55.452Z,100658.44
2022-10-14T08:10:22.594Z,100663.72
2022-10-14T08:12:50.251Z,100647.44
2022-10-14T08:15:17.431Z,100661.28
2022-10-14T08:17:44.530Z,100647.94
2022-10-14T08:20:12.611Z,100651.44
2022-10-14T08:22:39.704Z,100622.41
2022-10-14T08:25:07.150Z,100648.25
2022-10-14T08:27:34.191Z,100648.72
2022-10-14T08:30:01.740Z,100649.44
2022-10-14T08:32:31.302Z,100659.81
2022-10-14T08:34:58.338Z,100656.47
2022-10-14T08:37:25.548Z,100648.31
2022-10-14T08:39:52.650Z,100650.50
2022-10-14T08:42:58.743Z,100647.75
2022-10-14T08:45:49.926Z,100638.78
2022-10-14T08:48:21.997Z,100638.97
2022-10-14T08:50:58.763Z,100639.88
2022-10-14T08:53:33.260Z,100633.34
2022-10-14T08:56:01.901Z,100645.03
2022-10-14T08:58:51.065Z,100648.50
2022-10-14T09:01:33.675Z,100642.09
2022-10-14T09:04:06.905Z,100612.91
2022-10-14T09:06:38.519Z,100617.22
2022-10-14T09:09:30.756Z,100628.31
2022-10-14T09:12:05.148Z,100619.22
2022-10-14T09:14:37.567Z,100614.53
2022-10-14T09:17:13.995Z,100625.56
2022-10-14T09:19:47.067Z,100617.53
2022-10-14T09:22:15.748Z,100620.34
2022-10-14T09:24:49.815Z,100629.56
2022-10-14T09:27:21.951Z,100626.09
2022-10-14T09:29:59.152Z,100620.72
2022-10-14T09:32:55.685Z,100624.56
2022-10-14T09:35:33.810Z,100618.66
2022-10-14T09:38:01.037Z,100610.56
2022-10-14T09:40:33.670Z,100603.25
2022-10-14T09:43:16.002Z,100627.94
2022-10-14T09:46:07.971Z,100625.38
2022-10-14T09:48:51.959Z,100620.84
2022-10-14T09:51:36.935Z,100622.13
2022-10-14T09:54:05.241Z,100612.88
2022-10-14T09:56:45.324Z,100616.72
2022-10-14T09:59:19.725Z,100604.66
2022-10-14T10:02:02.095Z,100603.16
2022-10-14T10:04:31.983Z,100602.03
2022-10-14T10:07:26.466Z,100604.50
2022-10-14T10:09:58.860Z,100610.31
2022-10-14T10:12:37.639Z,100606.88
2022-10-14T10:15:09.057Z,100599.78
2022-10-14T10:17:40.793Z,100603.38
2022-10-14T10:20:20.327Z,100604.19
2022-10-14T10:22:47.504Z,100608.78
2022-10-14T10:25:14.527Z,100606.75
2022-10-14T10:27:52.543Z,100584.13
2022-10-14T10:30:28.095Z,100605.13
2022-10-14T10:33:15.934Z,100607.16
2022-10-14T10:36:26.393Z,100607.31
2022-10-14T10:39:05.853Z,100597.31
2022-10-14T10:42:00.697Z,100607.16
2022-10-14T10:45:21.012Z,100605.00
2022-10-14T10:48:06.558Z,100604.41
2022-10-14T10:51:17.028Z,100599.28
2022-10-14T10:53:47.041Z,100599.28
2022-10-14T10:56:20.308Z,100608.16
2022-10-14T10:59:17.327Z,100601.22
2022-10-14T11:02:24.839Z,100602.97
2022-10-14T11:05:30.890Z,100600.34
2022-10-14T11:08:47.614Z,100600.09
2022-10-14T11:11:45.129Z,100600.91
2022-10-14T11:14:31.039Z,100590.97
2022-10-14T11:17:16.450Z,100600.22
2022-10-14T11:20:05.680Z,100592.03
2022-10-14T11:23:11.760Z,100594.84
2022-10-14T11:26:02.696Z,100589.97
2022-10-14T11:28:53.781Z,100591.50
2022-10-14T11:31:35.387Z,100591.78
2022-10-14T11:34:11.335Z,100590.94
2022-10-14T11:36:47.922Z,100596.19
2022-10-14T11:39:43.478Z,100588.44
2022-10-14T11:42:38.680Z,100590.50
2022-10-14T11:45:40.631Z,100565.16
2022-10-14T11:48:29.440Z,100593.44
2022-10-14T11:51:16.087Z,100578.72
2022-10-14T11:53:52.197Z,100579.69
2022-10-14T11:56:37.393Z,100593.59
2022-10-14T11:59:21.355Z,100589.00
2022-10-14T12:01:52.188Z,100589.97
2022-10-14T12:04:39.340Z,100591.34
2022-10-14T12:07:17.907Z,100588.31
2022-10-14T12:09:57.411Z,100594.69
2022-10-14T12:12:32.471Z,100581.22
2022-10-14T12:15:05.877Z,100585.94
2022-10-14T12:17:56.090Z,100576.53
2022-10-14T12:20:46.124Z,100583.75
2022-10-14T12:23:29.900Z,100585.41
2022-10-14T12:26:19.837Z,100581.22
2022-10-14T12:28:48.028Z,100579.28
2022-10-14T12:31:21.696Z,100575.94
2022-10-14T12:34:15.991Z,100569.28
2022-10-14T12:36:48.776Z,100568.72
2022-10-14T12:39:18.654Z,100574.16
2022-10-14T12:41:59.352Z,100576.78
2022-10-14T12:44:56.306Z,100562.38
2022-10-14T12:47:32.032Z,100567.09
2022-10-14T12:50:03.089Z,100556.66
2022-10-14T12:52:34.144Z,100555.13
2022-10-14T12:55:08.511Z,100567.06
2022-10-14T12:57:40.204Z,100565.41
2022-10-14T13:00:21.510Z,100568.44
2022-10-14T13:02:51.413Z,100557.47
2022-10-14T13:05:31.078Z,100569.25
2022-10-14T13:08:16.121Z,100565.13
2022-10-14T13:10:47.284Z,100569.00
2022-10-14T13:13:47.834Z,100568.44
2022-10-14T13:16:20.904Z,100564.28
2022-10-14T13:19:02.507Z,100565.81
2022-10-14T13:21:36.430Z,100558.19
2022-10-14T13:24:17.984Z,100569.84
2022-10-14T13:26:54.410Z,100569.28
2022-10-14T13:29:49.433Z,100568.44
2022-10-14T13:32:35.358Z,100567.22
2022-10-14T13:35:06.145Z,100566.50
2022-10-14T13:37:44.813Z,100562.78
2022-10-14T13:40:24.497Z,100568.44
2022-10-14T13:42:56.883Z,100552.75
2022-10-14T13:45:42.195Z,100565.34
2022-10-14T13:48:16.990Z,100562.31
2022-10-14T13:50:47.035Z,100571.44
2022-10-14T13:53:16.895Z,100571.28
2022-10-14T13:55:49.175Z,100569.59
2022-10-14T13:58:25.150Z,100574.97
2022-10-14T14:01:02.481Z,100562.47
2022-10-14T14:03:37.002Z,100573.31
2022-10-14T14:06:11.500Z,100580.22
2022-10-14T14:08:50.292Z,100570.31
2022-10-14T14:11:24.049Z,100576.66
2022-10-14T14:14:29.870Z,100577.75
2022-10-14T14:17:02.898Z,100575.56
2022-10-14T14:19:35.622Z,100574.78
2022-10-14T14:22:30.508Z,100579.97
2022-10-14T14:25:33.966Z,100567.78
2022-10-14T14:28:06.082Z,100571.38
2022-10-14T14:30:38.915Z,100569.53
2022-10-14T14:33:13.721Z,100577.19
2022-10-14T14:35:50.412Z,100582.19
2022-10-14T14:38:26.127Z,100576.13
2022-10-14T14:41:02.235Z,100575.94
2022-10-14T14:43:34.585Z,100577.09
2022-10-14T14:46:05.456Z,100545.44
2022-10-14T14:48:34.183Z,100562.25
2022-10-14T14:51:02.038Z,100548.41
2022-10-14T14:53:31.969Z,100570.38
2022-10-14T14:56:06.820Z,100579.06
2022-10-14T14:58:40.502Z,100573.91
2022-10-14T15:01:29.611Z,100576.81
2022-10-14T15:04:13.587Z,100569.44
2022-10-14T15:06:51.763Z,100577.44
2022-10-14T15:09:32.259Z,100559.09
2022-10-14T15:12:01.965Z,100564.38
2022-10-14T15:14:49.970Z,100575.19
2022-10-14T15:17:36.944Z,100575.78
2022-10-14T15:20:04.094Z,100567.78
2022-10-14T15:22:36.386Z,100561.38
2022-10-14T15:25:30.906Z,100567.78
2022-10-14T15:28:02.852Z,100574.38
2022-10-14T15:30:37.397Z,100572.75
2022-10-14T15:33:17.917Z,100568.31
2022-10-14T15:35:54.277Z,100564.44
2022-10-14T15:38:23.159Z,100581.69
2022-10-14T15:40:51.043Z,100573.66
2022-10-14T15:43:24.958Z,100570.22
2022-10-14T15:46:17.066Z,100552.03
2022-10-14T15:48:53.032Z,100578.69
2022-10-14T15:51:21.688Z,100581.28
2022-10-14T15:53:49.152Z,100570.06
2022-10-14T15:56:17.314Z,100569.50
2022-10-14T15:58:47.339Z,100580.59
2022-10-14T16:01:23.897Z,100569.00
2022-10-14T16:03:52.420Z,100557.59
2022-10-14T16:06:22.686Z,100552.06
2022-10-14T16:08:53.212Z,100565.13
2022-10-14T16:11:25.599Z,100567.63
2022-10-14T16:13:53.315Z,100571.75
2022-10-14T16:16:46.636Z,100579.00
2022-10-14T16:19:13.832Z,100569.97
2022-10-14T16:21:41.058Z,100570.41
2022-10-14T16:24:15.222Z,100583.97
2022-10-14T16:26:42.390Z,100591.72
2022-10-14T16:29:12.186Z,100587.97
2022-10-14T16:31:39.302Z,100579.13
2022-10-14T16:34:06.396Z,100587.59
2022-10-14T16:36:33.644Z,100586.63
2022-10-14T16:39:03.457Z,100588.41
2022-10-14T16:41:31.073Z,100576.19
2022-10-14T16:43:58.280Z,100585.91
2022-10-14T16:46:47.714Z,100585.38
2022-10-14T16:49:14.895Z,100592.03
2022-10-14T16:51:43.076Z,100551.81
2022-10-14T16:54:11.128Z,100588.84
2022-10-14T16:56:53.328Z,100578.44
2022-10-14T16:59:21.855Z,100579.00
2022-10-14T17:01:49.480Z,100582.06
2022-10-14T17:04:20.322Z,100577.34
2022-10-14T17:06:51.990Z,100565.41
2022-10-14T17:09:19.875Z,100577.47
2022-10-14T17:11:49.802Z,100578.59
2022-10-14T17:14:21.900Z,100580.66
2022-10-14T17:16:52.344Z,100559.56
2022-10-14T17:19:24.005Z,100576.78
2022-10-14T17:21:51.238Z,100559.03
2022-10-14T17:24:18.406Z,100583.72
2022-10-14T17:26:45.752Z,100575.13
2022-10-14T17:29:12.905Z,100548.75
2022-10-14T17:31:40.108Z,100563.47
2022-10-14T17:34:09.923Z,100569.28
2022-10-14T17:36:41.725Z,100562.38
2022-10-14T17:39:22.824Z,100580.41
2022-10-14T17:41:55.460Z,100581.81
2022-10-14T17:44:22.565Z,100580.13
2022-10-14T17:46:52.752Z,100584.44
2022-10-14T17:49:22.641Z,100573.59
2022-10-14T17:51:51.091Z,100581.81
2022-10-14T17:54:18.207Z,100573.19
2022-10-14T17:56:45.338Z,100585.94
2022-10-14T17:59:14.378Z,100579.81
2022-10-14T18:04:28.849Z,100580.13
2022-10-14T18:06:56.215Z,100585.94
2022-10-14T18:09:23.341Z,100584.13
2022-10-14T18:14:41.206Z,100571.78
2022-10-14T18:17:13.243Z,100584.44
2022-10-14T18:19:41.479Z,100578.72
2022-10-14T18:22:08.914Z,100578.31
2022-10-14T18:24:46.659Z,100577.19
2022-10-14T18:27:13.717Z,100584.56
2022-10-14T18:29:40.932Z,100584.00
2022-10-14T18:32:08.110Z,100581.22
2022-10-14T18:34:36.864Z,100577.34
2022-10-14T18:37:03.949Z,100585.25
2022-10-14T18:39:31.112Z,100588.72
2022-10-14T18:41:58.205Z,100590.34
2022-10-14T18:44:25.557Z,100587.47
2022-10-14T18:46:53.045Z,100585.94
2022-10-14T18:49:20.160Z,100590.66
2022-10-14T18:51:47.232Z,100564.84
2022-10-14T18:54:17.135Z,100589.00
2022-10-14T18:56:45.341Z,100585.81
2022-10-14T18:59:15.307Z,100578.16
2022-10-14T19:01:43.164Z,100592.34
2022-10-14T19:04:13.118Z,100589.53
2022-10-14T19:06:45.980Z,100579.28
2022-10-14T19:09:13.979Z,100592.34
2022-10-14T19:11:42.248Z,100589.72
2022-10-14T19:14:10.011Z,100575.41
2022-10-14T19:16:39.052Z,100590.94
2022-10-14T19:19:14.389Z,100590.38
2022-10-14T19:21:41.654Z,100580.13
2022-10-14T19:24:13.408Z,100583.75
2022-10-14T19:26:44.125Z,100596.47
2022-10-14T19:29:14.164Z,100591.22
2022-10-14T19:31:43.658Z,100589.84
2022-10-14T19:34:13.283Z,100589.84
2022-10-14T19:36:41.437Z,100584.13
2022-10-14T19:39:12.687Z,100596.91
2022-10-14T19:41:44.451Z,100595.94
2022-10-14T19:44:12.596Z,100592.59
2022-10-14T19:46:43.157Z,100591.75
2022-10-14T19:49:12.965Z,100595.38
2022-10-14T19:51:40.679Z,100596.75
2022-10-14T19:54:09.737Z,100585.38
2022-10-14T19:56:36.893Z,100588.44
2022-10-14T19:59:04.715Z,100597.88
2022-10-14T20:01:31.915Z,100589.97
2022-10-14T20:04:01.289Z,100578.31
2022-10-14T20:06:32.814Z,100596.47
2022-10-14T20:09:00.084Z,100597.88
2022-10-14T20:11:28.540Z,100585.63
2022-10-14T20:13:55.846Z,100602.81
2022-10-14T20:16:23.052Z,100603.09
2022-10-14T20:18:50.237Z,100592.75
2022-10-14T20:21:17.383Z,100594.16
2022-10-14T20:23:45.030Z,100603.88
2022-10-14T20:26:17.690Z,100598.78
2022-10-14T20:28:47.379Z,100594.25
2022-10-14T20:31:19.070Z,100588.84
2022-10-14T20:33:46.557Z,100578.31
2022-10-14T20:36:16.538Z,100594.50
2022-10-14T20:38:45.532Z,100574.41
2022-10-14T20:41:18.772Z,100590.34
2022-10-14T20:43:52.756Z,100599.25
2022-10-14T20:46:20.324Z,100585.66
2022-10-14T20:48:50.417Z,100574.53
2022-10-14T20:51:23.395Z,100589.50
2022-10-14T20:53:56.891Z,100593.13
2022-10-14T20:56:29.913Z,100595.78
2022-10-14T20:59:00.073Z,100592.00
2022-10-14T21:01:29.039Z,100594.50
2022-10-14T21:03:56.918Z,100589.25
2022-10-14T21:06:26.377Z,100593.56
2022-10-14T21:08:53.522Z,100585.50
2022-10-14T21:11:23.565Z,100598.81
2022-10-14T21:13:54.446Z,100595.63
2022-10-14T21:16:24.176Z,100605.06
2022-10-14T21:18:57.843Z,100602.69
2022-10-14T21:21:28.225Z,100603.69
2022-10-14T21:23:56.766Z,100580.34
2022-10-14T21:26:26.436Z,100606.69
2022-10-14T21:28:56.003Z,100602.81
2022-10-14T21:31:25.451Z,100600.84
2022-10-14T21:34:00.029Z,100602.81
2022-10-14T21:36:31.764Z,100608.59
2022-10-14T21:39:00.910Z,100603.63
2022-10-14T21:41:28.411Z,100606.63
2022-10-14T21:43:58.808Z,100617.75
2022-10-14T21:46:27.109Z,100619.53
2022-10-14T21:48:59.987Z,100602.00
2022-10-14T21:51:29.298Z,100600.06
2022-10-14T21:53:57.656Z,100602.97
2022-10-14T21:56:26.498Z,100600.19
2022-10-14T21:58:53.897Z,100601.28
2022-10-14T22:01:23.741Z,100600.50
2022-10-14T22:03:56.189Z,100606.91
2022-10-14T22:06:24.040Z,100614.44
2022-10-14T22:08:53.624Z,100594.97
2022-10-14T22:11:30.869Z,100619.78
2022-10-14T22:13:59.581Z,100622.16
2022-10-14T22:16:29.186Z,100609.09
2022-10-14T22:18:59.256Z,100617.28
2022-10-14T22:21:27.690Z,100619.94
2022-10-14T22:23:56.502Z,100615.22
2022-10-14T22:26:27.924Z,100615.66
2022-10-14T22:29:15.583Z,100622.88
2022-10-14T22:31:43.711Z,100593.31
2022-10-14T22:34:15.171Z,100612.59
2022-10-14T22:36:42.791Z,100613.31
2022-10-14T22:39:16.158Z,100621.03
2022-10-14T22:41:43.492Z,100622.50
2022-10-14T22:44:11.134Z,100621.25
2022-10-14T22:46:39.798Z,100619.03
2022-10-14T22:49:07.002Z,100632.88
2022-10-14T22:51:40.444Z,100635.66
2022-10-14T22:54:10.912Z,100629.63
2022-10-14T22:56:38.312Z,100624.34
2022-10-14T22:59:11.290Z,100625.22
2022-10-14T23:01:40.136Z,100623.88
2022-10-14T23:04:07.691Z,100613.34
2022-10-14T23:06:35.112Z,100624.69
2022-10-14T23:09:02.868Z,100619.69
2022-10-14T23:11:31.404Z,100617.47
2022-10-14T23:14:00.318Z,100621.63
2022-10-14T23:16:33.083Z,100628.09
2022-10-14T23:19:00.178Z,100626.13
2022-10-14T23:21:32.351Z,100621.84
2022-10-14T23:24:01.560Z,100624.34
2022-10-14T23:26:34.574Z,100615.94
2022-10-14T23:29:07.382Z,100630.09
2022-10-14T23:31:36.437Z,100613.88
2022-10-14T23:34:10.942Z,100584.22
2022-10-14T23:36:38.438Z,100619.44
2022-10-14T23:39:06.028Z,100614.69
2022-10-14T23:41:33.407Z,100622.47
2022-10-14T23:44:00.592Z,100614.44
2022-10-14T23:46:27.729Z,100609.41
2022-10-14T23:49:06.761Z,100620.41
2022-10-14T23:51:35.672Z,100619.44
2022-10-14T23:54:03.221Z,100619.16
2022-10-14T23:56:30.304Z,100622.75
2022-10-14T23:58:57.356Z,100625.50
